sensor_id;sensor_type;location;lat;lon;timestamp;P1;durP1;ratioP1;P2;durP2;ratioP2
40847;SDS011;26570;50.962;5.340;2023-07-31T00:04:07;7.80;;;1.53;;
40847;SDS011;26570;50.962;5.340;2023-07-31T00:06:53;12.00;;;1.40;;
40847;SDS011;26570;50.962;5.340;2023-07-31T00:09:38;12.53;;;1.70;;
40847;SDS011;26570;50.962;5.340;2023-07-31T00:12:24;8.70;;;1.20;;
40847;SDS011;26570;50.962;5.340;2023-07-31T00:15:10;16.40;;;1.60;;
40847;SDS011;26570;50.962;5.340;2023-07-31T00:17:56;8.47;;;1.90;;
40847;SDS011;26570;50.962;5.340;2023-07-31T00:20:41;9.40;;;1.77;;
40847;SDS011;26570;50.962;5.340;2023-07-31T00:23:27;7.73;;;1.70;;
40847;SDS011;26570;50.962;5.340;2023-07-31T00:26:12;11.20;;;1.77;;
40847;SDS011;26570;50.962;5.340;2023-07-31T00:28:58;15.23;;;1.80;;
40847;SDS011;26570;50.962;5.340;2023-07-31T00:31:44;8.47;;;1.43;;
40847;SDS011;26570;50.962;5.340;2023-07-31T00:34:31;14.87;;;1.80;;
40847;SDS011;26570;50.962;5.340;2023-07-31T00:37:17;13.67;;;2.00;;
40847;SDS011;26570;50.962;5.340;2023-07-31T00:40:03;11.53;;;1.87;;
40847;SDS011;26570;50.962;5.340;2023-07-31T00:42:51;9.07;;;1.70;;
40847;SDS011;26570;50.962;5.340;2023-07-31T00:45:37;11.13;;;1.80;;
40847;SDS011;26570;50.962;5.340;2023-07-31T00:48:45;7.43;;;1.33;;
40847;SDS011;26570;50.962;5.340;2023-07-31T00:51:31;13.77;;;3.40;;
40847;SDS011;26570;50.962;5.340;2023-07-31T00:54:16;14.03;;;1.50;;
40847;SDS011;26570;50.962;5.340;2023-07-31T00:57:02;11.67;;;2.13;;
40847;SDS011;26570;50.962;5.340;2023-07-31T00:59:48;14.33;;;2.53;;
40847;SDS011;26570;50.962;5.340;2023-07-31T01:02:34;10.00;;;1.80;;
40847;SDS011;26570;50.962;5.340;2023-07-31T01:05:23;16.10;;;2.27;;
40847;SDS011;26570;50.962;5.340;2023-07-31T01:12:01;14.47;;;2.00;;
40847;SDS011;26570;50.962;5.340;2023-07-31T01:15:05;10.70;;;1.43;;
40847;SDS011;26570;50.962;5.340;2023-07-31T01:17:55;9.60;;;1.40;;
40847;SDS011;26570;50.962;5.340;2023-07-31T01:20:41;14.70;;;2.23;;
40847;SDS011;26570;50.962;5.340;2023-07-31T01:26:36;9.53;;;1.37;;
40847;SDS011;26570;50.962;5.340;2023-07-31T01:32:23;16.83;;;2.40;;
40847;SDS011;26570;50.962;5.340;2023-07-31T01:35:11;12.67;;;1.50;;
40847;SDS011;26570;50.962;5.340;2023-07-31T01:37:57;8.03;;;2.27;;
40847;SDS011;26570;50.962;5.340;2023-07-31T01:40:43;7.97;;;1.83;;
40847;SDS011;26570;50.962;5.340;2023-07-31T01:43:34;7.20;;;1.90;;
40847;SDS011;26570;50.962;5.340;2023-07-31T01:46:20;11.53;;;1.57;;
40847;SDS011;26570;50.962;5.340;2023-07-31T01:49:05;15.90;;;2.70;;
40847;SDS011;26570;50.962;5.340;2023-07-31T01:51:50;16.73;;;1.73;;
40847;SDS011;26570;50.962;5.340;2023-07-31T01:54:35;7.83;;;1.27;;
40847;SDS011;26570;50.962;5.340;2023-07-31T01:57:21;9.90;;;1.63;;
40847;SDS011;26570;50.962;5.340;2023-07-31T02:00:06;12.23;;;2.07;;
40847;SDS011;26570;50.962;5.340;2023-07-31T02:02:53;8.77;;;1.80;;
40847;SDS011;26570;50.962;5.340;2023-07-31T02:05:44;12.80;;;1.67;;
40847;SDS011;26570;50.962;5.340;2023-07-31T02:08:31;9.00;;;1.75;;
40847;SDS011;26570;50.962;5.340;2023-07-31T02:11:16;8.30;;;1.93;;
40847;SDS011;26570;50.962;5.340;2023-07-31T02:14:02;11.03;;;1.90;;
40847;SDS011;26570;50.962;5.340;2023-07-31T02:16:47;11.87;;;2.20;;
40847;SDS011;26570;50.962;5.340;2023-07-31T02:19:36;13.73;;;1.90;;
40847;SDS011;26570;50.962;5.340;2023-07-31T02:22:22;11.87;;;2.47;;
40847;SDS011;26570;50.962;5.340;2023-07-31T02:25:07;11.07;;;1.83;;
40847;SDS011;26570;50.962;5.340;2023-07-31T02:27:53;9.80;;;1.83;;
40847;SDS011;26570;50.962;5.340;2023-07-31T02:30:38;8.73;;;2.23;;
40847;SDS011;26570;50.962;5.340;2023-07-31T02:33:24;8.17;;;1.47;;
40847;SDS011;26570;50.962;5.340;2023-07-31T02:36:12;10.10;;;2.40;;
40847;SDS011;26570;50.962;5.340;2023-07-31T02:38:58;10.87;;;2.87;;
40847;SDS011;26570;50.962;5.340;2023-07-31T02:42:06;12.00;;;2.53;;
40847;SDS011;26570;50.962;5.340;2023-07-31T02:44:52;8.90;;;2.00;;
40847;SDS011;26570;50.962;5.340;2023-07-31T02:47:40;14.90;;;2.40;;
40847;SDS011;26570;50.962;5.340;2023-07-31T02:50:25;8.83;;;2.20;;
40847;SDS011;26570;50.962;5.340;2023-07-31T02:53:11;8.37;;;2.50;;
40847;SDS011;26570;50.962;5.340;2023-07-31T02:55:56;9.50;;;2.77;;
40847;SDS011;26570;50.962;5.340;2023-07-31T02:58:42;12.93;;;2.17;;
40847;SDS011;26570;50.962;5.340;2023-07-31T03:01:28;12.70;;;2.23;;
40847;SDS011;26570;50.962;5.340;2023-07-31T03:04:13;9.17;;;2.10;;
40847;SDS011;26570;50.962;5.340;2023-07-31T03:07:02;7.50;;;2.13;;
40847;SDS011;26570;50.962;5.340;2023-07-31T03:09:47;9.00;;;2.63;;
40847;SDS011;26570;50.962;5.340;2023-07-31T03:12:33;6.53;;;1.97;;
40847;SDS011;26570;50.962;5.340;2023-07-31T03:15:20;9.30;;;2.37;;
40847;SDS011;26570;50.962;5.340;2023-07-31T03:18:06;9.43;;;2.03;;
40847;SDS011;26570;50.962;5.340;2023-07-31T03:20:51;10.17;;;2.73;;
40847;SDS011;26570;50.962;5.340;2023-07-31T03:23:37;8.33;;;2.07;;
40847;SDS011;26570;50.962;5.340;2023-07-31T03:26:23;5.30;;;2.07;;
40847;SDS011;26570;50.962;5.340;2023-07-31T03:29:08;7.20;;;1.63;;
40847;SDS011;26570;50.962;5.340;2023-07-31T03:31:54;10.03;;;2.33;;
40847;SDS011;26570;50.962;5.340;2023-07-31T03:34:39;11.87;;;3.17;;
40847;SDS011;26570;50.962;5.340;2023-07-31T03:37:25;10.17;;;2.13;;
40847;SDS011;26570;50.962;5.340;2023-07-31T03:40:10;6.43;;;2.13;;
40847;SDS011;26570;50.962;5.340;2023-07-31T03:42:56;6.37;;;1.63;;
40847;SDS011;26570;50.962;5.340;2023-07-31T03:45:41;8.70;;;2.20;;
40847;SDS011;26570;50.962;5.340;2023-07-31T03:48:27;8.63;;;1.97;;
40847;SDS011;26570;50.962;5.340;2023-07-31T03:51:34;5.43;;;1.50;;
40847;SDS011;26570;50.962;5.340;2023-07-31T03:54:20;5.00;;;2.03;;
40847;SDS011;26570;50.962;5.340;2023-07-31T03:57:05;5.77;;;1.70;;
40847;SDS011;26570;50.962;5.340;2023-07-31T03:59:54;7.40;;;1.93;;
40847;SDS011;26570;50.962;5.340;2023-07-31T04:03:02;9.47;;;1.40;;
40847;SDS011;26570;50.962;5.340;2023-07-31T04:05:48;8.37;;;1.80;;
40847;SDS011;26570;50.962;5.340;2023-07-31T04:08:33;7.60;;;1.73;;
40847;SDS011;26570;50.962;5.340;2023-07-31T04:11:19;4.23;;;2.00;;
40847;SDS011;26570;50.962;5.340;2023-07-31T04:14:05;5.57;;;1.47;;
40847;SDS011;26570;50.962;5.340;2023-07-31T04:16:50;8.13;;;1.70;;
40847;SDS011;26570;50.962;5.340;2023-07-31T04:19:36;8.33;;;1.60;;
40847;SDS011;26570;50.962;5.340;2023-07-31T04:22:22;6.47;;;1.30;;
40847;SDS011;26570;50.962;5.340;2023-07-31T04:25:07;5.77;;;1.53;;
40847;SDS011;26570;50.962;5.340;2023-07-31T04:28:15;5.57;;;1.30;;
40847;SDS011;26570;50.962;5.340;2023-07-31T04:31:01;3.00;;;1.20;;
40847;SDS011;26570;50.962;5.340;2023-07-31T04:33:47;5.47;;;1.27;;
40847;SDS011;26570;50.962;5.340;2023-07-31T04:36:33;4.13;;;1.30;;
40847;SDS011;26570;50.962;5.340;2023-07-31T04:39:19;5.10;;;1.20;;
40847;SDS011;26570;50.962;5.340;2023-07-31T04:42:04;4.03;;;1.10;;
40847;SDS011;26570;50.962;5.340;2023-07-31T04:44:49;7.47;;;1.27;;
40847;SDS011;26570;50.962;5.340;2023-07-31T04:47:37;6.80;;;1.40;;
40847;SDS011;26570;50.962;5.340;2023-07-31T04:50:23;5.60;;;1.37;;
40847;SDS011;26570;50.962;5.340;2023-07-31T04:53:08;7.23;;;1.73;;
40847;SDS011;26570;50.962;5.340;2023-07-31T04:55:54;4.73;;;1.80;;
40847;SDS011;26570;50.962;5.340;2023-07-31T04:58:40;8.43;;;2.53;;
40847;SDS011;26570;50.962;5.340;2023-07-31T05:01:26;6.10;;;1.40;;
40847;SDS011;26570;50.962;5.340;2023-07-31T05:04:12;5.60;;;1.63;;
40847;SDS011;26570;50.962;5.340;2023-07-31T05:06:59;8.43;;;1.70;;
40847;SDS011;26570;50.962;5.340;2023-07-31T05:09:45;8.70;;;2.60;;
40847;SDS011;26570;50.962;5.340;2023-07-31T05:12:31;4.53;;;1.20;;
40847;SDS011;26570;50.962;5.340;2023-07-31T05:15:17;4.47;;;1.57;;
40847;SDS011;26570;50.962;5.340;2023-07-31T05:18:03;7.23;;;1.60;;
40847;SDS011;26570;50.962;5.340;2023-07-31T05:23:53;8.80;;;2.23;;
40847;SDS011;26570;50.962;5.340;2023-07-31T05:26:39;4.90;;;1.40;;
40847;SDS011;26570;50.962;5.340;2023-07-31T05:29:25;6.27;;;1.47;;
40847;SDS011;26570;50.962;5.340;2023-07-31T05:32:11;7.03;;;1.73;;
40847;SDS011;26570;50.962;5.340;2023-07-31T05:34:57;8.83;;;2.10;;
40847;SDS011;26570;50.962;5.340;2023-07-31T05:38:05;3.50;;;1.40;;
40847;SDS011;26570;50.962;5.340;2023-07-31T05:40:51;8.20;;;2.40;;
40847;SDS011;26570;50.962;5.340;2023-07-31T05:43:36;8.60;;;1.83;;
40847;SDS011;26570;50.962;5.340;2023-07-31T05:46:22;7.33;;;1.70;;
40847;SDS011;26570;50.962;5.340;2023-07-31T05:49:08;6.97;;;1.73;;
40847;SDS011;26570;50.962;5.340;2023-07-31T05:52:05;6.93;;;1.60;;
40847;SDS011;26570;50.962;5.340;2023-07-31T05:54:50;4.63;;;1.27;;
40847;SDS011;26570;50.962;5.340;2023-07-31T05:57:36;4.73;;;1.03;;
40847;SDS011;26570;50.962;5.340;2023-07-31T06:00:20;6.63;;;1.33;;
40847;SDS011;26570;50.962;5.340;2023-07-31T06:03:28;5.87;;;1.60;;
40847;SDS011;26570;50.962;5.340;2023-07-31T06:06:15;7.60;;;1.53;;
40847;SDS011;26570;50.962;5.340;2023-07-31T06:09:02;4.00;;;1.23;;
40847;SDS011;26570;50.962;5.340;2023-07-31T06:11:47;6.97;;;1.50;;
40847;SDS011;26570;50.962;5.340;2023-07-31T06:14:33;8.30;;;1.20;;
40847;SDS011;26570;50.962;5.340;2023-07-31T06:17:19;9.63;;;1.27;;
40847;SDS011;26570;50.962;5.340;2023-07-31T06:20:15;6.37;;;1.27;;
40847;SDS011;26570;50.962;5.340;2023-07-31T06:23:03;9.40;;;1.20;;
40847;SDS011;26570;50.962;5.340;2023-07-31T06:25:48;4.60;;;1.17;;
40847;SDS011;26570;50.962;5.340;2023-07-31T06:28:34;7.07;;;1.13;;
40847;SDS011;26570;50.962;5.340;2023-07-31T06:31:23;7.93;;;1.43;;
40847;SDS011;26570;50.962;5.340;2023-07-31T06:34:08;7.53;;;1.03;;
40847;SDS011;26570;50.962;5.340;2023-07-31T06:36:54;3.53;;;1.27;;
40847;SDS011;26570;50.962;5.340;2023-07-31T06:39:40;5.50;;;1.30;;
40847;SDS011;26570;50.962;5.340;2023-07-31T06:45:31;9.20;;;1.47;;
40847;SDS011;26570;50.962;5.340;2023-07-31T06:48:41;6.67;;;1.70;;
40847;SDS011;26570;50.962;5.340;2023-07-31T06:51:27;8.43;;;1.53;;
40847;SDS011;26570;50.962;5.340;2023-07-31T06:54:12;7.03;;;1.60;;
40847;SDS011;26570;50.962;5.340;2023-07-31T06:56:57;8.00;;;1.37;;
40847;SDS011;26570;50.962;5.340;2023-07-31T07:06:16;8.07;;;1.83;;
40847;SDS011;26570;50.962;5.340;2023-07-31T07:09:08;3.70;;;1.43;;
40847;SDS011;26570;50.962;5.340;2023-07-31T07:11:53;10.60;;;1.37;;
40847;SDS011;26570;50.962;5.340;2023-07-31T07:17:47;9.87;;;1.63;;
40847;SDS011;26570;50.962;5.340;2023-07-31T07:20:32;5.40;;;1.47;;
40847;SDS011;26570;50.962;5.340;2023-07-31T07:23:18;6.63;;;1.33;;
40847;SDS011;26570;50.962;5.340;2023-07-31T07:26:07;8.17;;;2.07;;
40847;SDS011;26570;50.962;5.340;2023-07-31T07:28:53;4.93;;;1.17;;
40847;SDS011;26570;50.962;5.340;2023-07-31T07:31:38;3.50;;;1.00;;
40847;SDS011;26570;50.962;5.340;2023-07-31T07:34:26;5.20;;;1.13;;
40847;SDS011;26570;50.962;5.340;2023-07-31T07:37:12;9.17;;;2.23;;
40847;SDS011;26570;50.962;5.340;2023-07-31T07:40:08;7.83;;;1.30;;
40847;SDS011;26570;50.962;5.340;2023-07-31T07:42:54;6.00;;;1.10;;
40847;SDS011;26570;50.962;5.340;2023-07-31T07:45:40;5.00;;;1.10;;
40847;SDS011;26570;50.962;5.340;2023-07-31T07:48:25;4.13;;;1.20;;
40847;SDS011;26570;50.962;5.340;2023-07-31T07:51:11;5.23;;;1.00;;
40847;SDS011;26570;50.962;5.340;2023-07-31T07:53:56;6.97;;;1.27;;
40847;SDS011;26570;50.962;5.340;2023-07-31T07:57:07;4.30;;;1.07;;
40847;SDS011;26570;50.962;5.340;2023-07-31T08:03:10;7.33;;;1.03;;
40847;SDS011;26570;50.962;5.340;2023-07-31T08:06:11;2.73;;;0.87;;
40847;SDS011;26570;50.962;5.340;2023-07-31T08:08:59;2.53;;;0.83;;
40847;SDS011;26570;50.962;5.340;2023-07-31T08:14:58;5.43;;;0.77;;
40847;SDS011;26570;50.962;5.340;2023-07-31T08:17:44;3.10;;;0.90;;
40847;SDS011;26570;50.962;5.340;2023-07-31T08:20:48;3.60;;;0.80;;
40847;SDS011;26570;50.962;5.340;2023-07-31T08:23:48;3.37;;;1.00;;
40847;SDS011;26570;50.962;5.340;2023-07-31T08:27:12;2.20;;;0.77;;
40847;SDS011;26570;50.962;5.340;2023-07-31T08:30:00;6.00;;;1.00;;
40847;SDS011;26570;50.962;5.340;2023-07-31T08:32:48;4.80;;;0.90;;
40847;SDS011;26570;50.962;5.340;2023-07-31T08:35:37;4.43;;;1.03;;
40847;SDS011;26570;50.962;5.340;2023-07-31T08:38:27;3.70;;;0.80;;
40847;SDS011;26570;50.962;5.340;2023-07-31T08:41:18;4.13;;;0.80;;
40847;SDS011;26570;50.962;5.340;2023-07-31T08:44:05;3.10;;;0.90;;
40847;SDS011;26570;50.962;5.340;2023-07-31T08:46:55;4.47;;;1.10;;
40847;SDS011;26570;50.962;5.340;2023-07-31T08:49:42;4.43;;;0.87;;
40847;SDS011;26570;50.962;5.340;2023-07-31T08:52:31;3.57;;;0.97;;
40847;SDS011;26570;50.962;5.340;2023-07-31T08:55:20;4.60;;;0.90;;
40847;SDS011;26570;50.962;5.340;2023-07-31T08:58:07;2.50;;;0.90;;
40847;SDS011;26570;50.962;5.340;2023-07-31T09:01:01;5.47;;;1.20;;
40847;SDS011;26570;50.962;5.340;2023-07-31T09:03:49;3.90;;;1.10;;
40847;SDS011;26570;50.962;5.340;2023-07-31T09:06:37;3.87;;;1.00;;
40847;SDS011;26570;50.962;5.340;2023-07-31T09:09:35;4.00;;;0.97;;
40847;SDS011;26570;50.962;5.340;2023-07-31T09:12:39;3.30;;;0.80;;
40847;SDS011;26570;50.962;5.340;2023-07-31T09:18:13;4.47;;;0.60;;
40847;SDS011;26570;50.962;5.340;2023-07-31T09:24:34;3.13;;;0.90;;
40847;SDS011;26570;50.962;5.340;2023-07-31T09:30:47;2.30;;;0.70;;
40847;SDS011;26570;50.962;5.340;2023-07-31T09:33:39;5.67;;;0.80;;
40847;SDS011;26570;50.962;5.340;2023-07-31T09:36:43;2.60;;;0.60;;
40847;SDS011;26570;50.962;5.340;2023-07-31T09:39:48;2.50;;;0.50;;
40847;SDS011;26570;50.962;5.340;2023-07-31T09:43:03;2.30;;;0.50;;
40847;SDS011;26570;50.962;5.340;2023-07-31T09:45:56;1.70;;;0.47;;
40847;SDS011;26570;50.962;5.340;2023-07-31T09:48:44;3.63;;;0.60;;
40847;SDS011;26570;50.962;5.340;2023-07-31T09:51:28;2.70;;;0.50;;
40847;SDS011;26570;50.962;5.340;2023-07-31T09:54:30;1.23;;;0.40;;
40847;SDS011;26570;50.962;5.340;2023-07-31T09:57:18;1.60;;;0.50;;
40847;SDS011;26570;50.962;5.340;2023-07-31T10:04:25;0.87;;;0.40;;
40847;SDS011;26570;50.962;5.340;2023-07-31T10:07:16;1.05;;;0.40;;
40847;SDS011;26570;50.962;5.340;2023-07-31T10:10:02;1.10;;;0.50;;
40847;SDS011;26570;50.962;5.340;2023-07-31T10:12:50;0.82;;;0.38;;
40847;SDS011;26570;50.962;5.340;2023-07-31T10:15:40;5.30;;;0.50;;
40847;SDS011;26570;50.962;5.340;2023-07-31T10:18:30;2.67;;;0.50;;
40847;SDS011;26570;50.962;5.340;2023-07-31T10:21:16;1.92;;;0.43;;
40847;SDS011;26570;50.962;5.340;2023-07-31T10:24:05;3.40;;;0.60;;
40847;SDS011;26570;50.962;5.340;2023-07-31T10:26:53;3.65;;;0.93;;
40847;SDS011;26570;50.962;5.340;2023-07-31T10:33:01;4.80;;;0.60;;
40847;SDS011;26570;50.962;5.340;2023-07-31T10:35:47;3.05;;;0.70;;
40847;SDS011;26570;50.962;5.340;2023-07-31T10:42:09;3.00;;;0.52;;
40847;SDS011;26570;50.962;5.340;2023-07-31T10:44:59;3.08;;;0.80;;
40847;SDS011;26570;50.962;5.340;2023-07-31T10:47:49;2.53;;;0.80;;
40847;SDS011;26570;50.962;5.340;2023-07-31T10:50:52;4.20;;;0.90;;
40847;SDS011;26570;50.962;5.340;2023-07-31T10:53:43;2.70;;;0.90;;
40847;SDS011;26570;50.962;5.340;2023-07-31T10:56:52;5.28;;;0.93;;
40847;SDS011;26570;50.962;5.340;2023-07-31T10:59:37;4.10;;;1.08;;
40847;SDS011;26570;50.962;5.340;2023-07-31T11:02:26;11.15;;;1.35;;
40847;SDS011;26570;50.962;5.340;2023-07-31T11:05:14;4.18;;;1.10;;
40847;SDS011;26570;50.962;5.340;2023-07-31T11:08:34;4.60;;;1.30;;
40847;SDS011;26570;50.962;5.340;2023-07-31T11:11:13;4.88;;;1.30;;
40847;SDS011;26570;50.962;5.340;2023-07-31T11:14:03;5.22;;;1.35;;
40847;SDS011;26570;50.962;5.340;2023-07-31T11:16:52;6.15;;;1.10;;
40847;SDS011;26570;50.962;5.340;2023-07-31T11:19:40;5.40;;;1.45;;
40847;SDS011;26570;50.962;5.340;2023-07-31T11:22:41;4.10;;;1.15;;
40847;SDS011;26570;50.962;5.340;2023-07-31T11:25:26;5.60;;;1.15;;
40847;SDS011;26570;50.962;5.340;2023-07-31T11:28:13;2.58;;;0.90;;
40847;SDS011;26570;50.962;5.340;2023-07-31T11:34:27;3.08;;;1.15;;
40847;SDS011;26570;50.962;5.340;2023-07-31T11:37:13;5.40;;;1.35;;
40847;SDS011;26570;50.962;5.340;2023-07-31T11:40:01;5.82;;;1.10;;
40847;SDS011;26570;50.962;5.340;2023-07-31T11:42:50;3.75;;;1.00;;
40847;SDS011;26570;50.962;5.340;2023-07-31T11:45:38;6.85;;;1.27;;
40847;SDS011;26570;50.962;5.340;2023-07-31T11:48:25;3.55;;;1.13;;
40847;SDS011;26570;50.962;5.340;2023-07-31T11:51:18;5.90;;;1.45;;
40847;SDS011;26570;50.962;5.340;2023-07-31T11:54:05;4.22;;;1.00;;
40847;SDS011;26570;50.962;5.340;2023-07-31T11:56:54;5.53;;;1.00;;
40847;SDS011;26570;50.962;5.340;2023-07-31T11:59:55;2.80;;;1.00;;
40847;SDS011;26570;50.962;5.340;2023-07-31T12:02:42;5.43;;;1.10;;
40847;SDS011;26570;50.962;5.340;2023-07-31T12:05:28;4.10;;;0.90;;
40847;SDS011;26570;50.962;5.340;2023-07-31T12:08:17;5.43;;;0.98;;
40847;SDS011;26570;50.962;5.340;2023-07-31T12:11:46;5.75;;;1.02;;
40847;SDS011;26570;50.962;5.340;2023-07-31T12:14:32;3.72;;;0.98;;
40847;SDS011;26570;50.962;5.340;2023-07-31T12:17:19;5.30;;;1.10;;
40847;SDS011;26570;50.962;5.340;2023-07-31T12:20:08;3.20;;;0.90;;
40847;SDS011;26570;50.962;5.340;2023-07-31T12:22:56;3.70;;;1.15;;
40847;SDS011;26570;50.962;5.340;2023-07-31T12:25:45;5.93;;;1.15;;
40847;SDS011;26570;50.962;5.340;2023-07-31T12:32:17;5.63;;;1.15;;
40847;SDS011;26570;50.962;5.340;2023-07-31T12:35:07;5.68;;;1.13;;
40847;SDS011;26570;50.962;5.340;2023-07-31T12:37:55;5.28;;;1.73;;
40847;SDS011;26570;50.962;5.340;2023-07-31T12:40:43;5.47;;;1.35;;
40847;SDS011;26570;50.962;5.340;2023-07-31T12:43:28;5.10;;;0.90;;
40847;SDS011;26570;50.962;5.340;2023-07-31T12:46:13;4.63;;;0.85;;
40847;SDS011;26570;50.962;5.340;2023-07-31T12:48:58;6.78;;;1.98;;
40847;SDS011;26570;50.962;5.340;2023-07-31T12:51:57;3.58;;;1.10;;
40847;SDS011;26570;50.962;5.340;2023-07-31T12:54:59;2.90;;;0.80;;
40847;SDS011;26570;50.962;5.340;2023-07-31T12:57:44;5.80;;;1.00;;
40847;SDS011;26570;50.962;5.340;2023-07-31T13:00:41;7.65;;;1.50;;
40847;SDS011;26570;50.962;5.340;2023-07-31T13:03:48;4.25;;;1.38;;
40847;SDS011;26570;50.962;5.340;2023-07-31T13:06:45;7.93;;;1.30;;
40847;SDS011;26570;50.962;5.340;2023-07-31T13:09:30;2.70;;;1.15;;
40847;SDS011;26570;50.962;5.340;2023-07-31T13:12:16;7.90;;;1.27;;
40847;SDS011;26570;50.962;5.340;2023-07-31T13:15:02;3.35;;;0.93;;
40847;SDS011;26570;50.962;5.340;2023-07-31T13:17:51;4.97;;;1.27;;
40847;SDS011;26570;50.962;5.340;2023-07-31T13:20:48;5.78;;;1.55;;
40847;SDS011;26570;50.962;5.340;2023-07-31T13:23:33;4.05;;;1.33;;
40847;SDS011;26570;50.962;5.340;2023-07-31T13:26:22;4.97;;;1.40;;
40847;SDS011;26570;50.962;5.340;2023-07-31T13:29:15;4.95;;;1.70;;
40847;SDS011;26570;50.962;5.340;2023-07-31T13:31:59;5.80;;;1.00;;
40847;SDS011;26570;50.962;5.340;2023-07-31T13:34:48;5.97;;;1.30;;
40847;SDS011;26570;50.962;5.340;2023-07-31T13:37:36;5.30;;;1.58;;
40847;SDS011;26570;50.962;5.340;2023-07-31T13:40:40;5.07;;;1.23;;
40847;SDS011;26570;50.962;5.340;2023-07-31T13:43:29;8.50;;;1.17;;
40847;SDS011;26570;50.962;5.340;2023-07-31T13:46:36;5.88;;;1.02;;
40847;SDS011;26570;50.962;5.340;2023-07-31T13:49:24;7.18;;;1.00;;
40847;SDS011;26570;50.962;5.340;2023-07-31T13:52:31;3.67;;;1.20;;
40847;SDS011;26570;50.962;5.340;2023-07-31T13:55:24;6.38;;;0.98;;
40847;SDS011;26570;50.962;5.340;2023-07-31T13:58:12;2.63;;;1.00;;
40847;SDS011;26570;50.962;5.340;2023-07-31T14:04:15;6.30;;;1.20;;
40847;SDS011;26570;50.962;5.340;2023-07-31T14:07:04;5.90;;;1.98;;
40847;SDS011;26570;50.962;5.340;2023-07-31T14:09:52;5.10;;;1.77;;
40847;SDS011;26570;50.962;5.340;2023-07-31T14:16:02;8.02;;;1.70;;
40847;SDS011;26570;50.962;5.340;2023-07-31T14:18:48;5.85;;;1.55;;
40847;SDS011;26570;50.962;5.340;2023-07-31T14:21:33;3.58;;;1.08;;
40847;SDS011;26570;50.962;5.340;2023-07-31T14:24:20;5.00;;;0.93;;
40847;SDS011;26570;50.962;5.340;2023-07-31T14:27:05;4.13;;;1.00;;
40847;SDS011;26570;50.962;5.340;2023-07-31T14:29:51;7.25;;;0.90;;
40847;SDS011;26570;50.962;5.340;2023-07-31T14:32:36;4.20;;;1.00;;
40847;SDS011;26570;50.962;5.340;2023-07-31T14:35:21;4.65;;;0.85;;
40847;SDS011;26570;50.962;5.340;2023-07-31T14:38:07;4.85;;;0.88;;
40847;SDS011;26570;50.962;5.340;2023-07-31T14:40:52;4.15;;;1.00;;
40847;SDS011;26570;50.962;5.340;2023-07-31T14:43:37;4.78;;;1.42;;
40847;SDS011;26570;50.962;5.340;2023-07-31T14:46:22;4.30;;;1.17;;
40847;SDS011;26570;50.962;5.340;2023-07-31T14:49:08;2.40;;;0.80;;
40847;SDS011;26570;50.962;5.340;2023-07-31T14:51:54;7.72;;;0.90;;
40847;SDS011;26570;50.962;5.340;2023-07-31T14:54:42;3.90;;;0.60;;
40847;SDS011;26570;50.962;5.340;2023-07-31T14:57:28;2.63;;;1.00;;
40847;SDS011;26570;50.962;5.340;2023-07-31T15:00:13;2.90;;;0.60;;
40847;SDS011;26570;50.962;5.340;2023-07-31T15:02:58;1.90;;;0.70;;
40847;SDS011;26570;50.962;5.340;2023-07-31T15:05:44;2.55;;;0.60;;
40847;SDS011;26570;50.962;5.340;2023-07-31T15:08:29;3.67;;;0.60;;
40847;SDS011;26570;50.962;5.340;2023-07-31T15:11:17;1.75;;;0.50;;
40847;SDS011;26570;50.962;5.340;2023-07-31T15:14:02;1.67;;;0.40;;
40847;SDS011;26570;50.962;5.340;2023-07-31T15:16:47;1.98;;;0.52;;
40847;SDS011;26570;50.962;5.340;2023-07-31T15:19:32;2.47;;;0.45;;
40847;SDS011;26570;50.962;5.340;2023-07-31T15:22:21;2.63;;;0.60;;
40847;SDS011;26570;50.962;5.340;2023-07-31T15:25:07;1.95;;;0.50;;
40847;SDS011;26570;50.962;5.340;2023-07-31T15:27:53;3.50;;;1.05;;
40847;SDS011;26570;50.962;5.340;2023-07-31T15:30:38;1.60;;;0.50;;
40847;SDS011;26570;50.962;5.340;2023-07-31T15:33:23;2.13;;;0.50;;
40847;SDS011;26570;50.962;5.340;2023-07-31T15:36:08;2.83;;;0.60;;
40847;SDS011;26570;50.962;5.340;2023-07-31T15:38:53;1.25;;;0.50;;
40847;SDS011;26570;50.962;5.340;2023-07-31T15:41:39;2.10;;;0.50;;
40847;SDS011;26570;50.962;5.340;2023-07-31T15:44:25;1.83;;;0.50;;
40847;SDS011;26570;50.962;5.340;2023-07-31T15:47:10;3.03;;;0.60;;
40847;SDS011;26570;50.962;5.340;2023-07-31T15:49:56;1.60;;;0.50;;
40847;SDS011;26570;50.962;5.340;2023-07-31T15:52:41;1.55;;;0.50;;
40847;SDS011;26570;50.962;5.340;2023-07-31T15:55:27;2.03;;;0.65;;
40847;SDS011;26570;50.962;5.340;2023-07-31T15:58:11;2.33;;;0.70;;
40847;SDS011;26570;50.962;5.340;2023-07-31T16:00:57;4.80;;;1.33;;
40847;SDS011;26570;50.962;5.340;2023-07-31T16:03:43;4.20;;;0.73;;
40847;SDS011;26570;50.962;5.340;2023-07-31T16:06:28;2.17;;;0.60;;
40847;SDS011;26570;50.962;5.340;2023-07-31T16:09:13;1.88;;;0.50;;
40847;SDS011;26570;50.962;5.340;2023-07-31T16:11:58;1.73;;;0.50;;
40847;SDS011;26570;50.962;5.340;2023-07-31T16:14:43;2.67;;;0.65;;
40847;SDS011;26570;50.962;5.340;2023-07-31T16:17:29;2.03;;;0.50;;
40847;SDS011;26570;50.962;5.340;2023-07-31T16:20:14;1.50;;;0.45;;
40847;SDS011;26570;50.962;5.340;2023-07-31T16:22:59;2.20;;;0.60;;
40847;SDS011;26570;50.962;5.340;2023-07-31T16:25:45;1.57;;;0.53;;
40847;SDS011;26570;50.962;5.340;2023-07-31T16:28:30;1.60;;;0.60;;
40847;SDS011;26570;50.962;5.340;2023-07-31T16:31:16;5.00;;;0.60;;
40847;SDS011;26570;50.962;5.340;2023-07-31T16:34:01;1.67;;;0.50;;
40847;SDS011;26570;50.962;5.340;2023-07-31T16:36:46;2.00;;;0.60;;
40847;SDS011;26570;50.962;5.340;2023-07-31T16:39:32;1.53;;;0.43;;
40847;SDS011;26570;50.962;5.340;2023-07-31T16:42:20;1.60;;;0.50;;
40847;SDS011;26570;50.962;5.340;2023-07-31T16:45:07;1.40;;;0.50;;
40847;SDS011;26570;50.962;5.340;2023-07-31T16:47:52;1.63;;;0.50;;
40847;SDS011;26570;50.962;5.340;2023-07-31T16:50:37;1.00;;;0.40;;
40847;SDS011;26570;50.962;5.340;2023-07-31T16:53:23;1.57;;;0.60;;
40847;SDS011;26570;50.962;5.340;2023-07-31T16:56:08;2.07;;;0.40;;
40847;SDS011;26570;50.962;5.340;2023-07-31T16:58:54;3.80;;;0.40;;
40847;SDS011;26570;50.962;5.340;2023-07-31T17:01:40;3.90;;;0.50;;
40847;SDS011;26570;50.962;5.340;2023-07-31T17:04:26;3.30;;;0.50;;
40847;SDS011;26570;50.962;5.340;2023-07-31T17:07:11;1.10;;;0.43;;
40847;SDS011;26570;50.962;5.340;2023-07-31T17:09:57;2.50;;;0.50;;
40847;SDS011;26570;50.962;5.340;2023-07-31T17:12:42;1.50;;;0.45;;
40847;SDS011;26570;50.962;5.340;2023-07-31T17:15:27;1.30;;;0.40;;
40847;SDS011;26570;50.962;5.340;2023-07-31T17:18:12;1.33;;;0.50;;
40847;SDS011;26570;50.962;5.340;2023-07-31T17:20:58;1.10;;;0.40;;
40847;SDS011;26570;50.962;5.340;2023-07-31T17:23:43;2.27;;;0.40;;
40847;SDS011;26570;50.962;5.340;2023-07-31T17:26:30;1.60;;;0.37;;
40847;SDS011;26570;50.962;5.340;2023-07-31T17:29:16;1.10;;;0.40;;
40847;SDS011;26570;50.962;5.340;2023-07-31T17:32:01;1.53;;;0.40;;
40847;SDS011;26570;50.962;5.340;2023-07-31T17:34:46;2.73;;;0.40;;
40847;SDS011;26570;50.962;5.340;2023-07-31T17:37:31;1.50;;;0.40;;
40847;SDS011;26570;50.962;5.340;2023-07-31T17:40:16;2.33;;;0.40;;
40847;SDS011;26570;50.962;5.340;2023-07-31T17:43:02;1.30;;;0.40;;
40847;SDS011;26570;50.962;5.340;2023-07-31T17:45:47;0.97;;;0.30;;
40847;SDS011;26570;50.962;5.340;2023-07-31T17:48:32;3.07;;;0.70;;
40847;SDS011;26570;50.962;5.340;2023-07-31T17:51:18;2.10;;;0.40;;
40847;SDS011;26570;50.962;5.340;2023-07-31T17:54:03;1.83;;;0.40;;
40847;SDS011;26570;50.962;5.340;2023-07-31T17:56:49;2.83;;;0.40;;
40847;SDS011;26570;50.962;5.340;2023-07-31T17:59:34;1.53;;;0.40;;
40847;SDS011;26570;50.962;5.340;2023-07-31T18:02:19;2.30;;;0.40;;